createdAt,value
2022-09-07T00:00:40.313Z,4.55
2022-09-07T00:03:07.136Z,3.92
2022-09-07T00:05:34.190Z,6.97
2022-09-07T00:08:00.934Z,6.30
2022-09-07T00:10:27.555Z,7.63
2022-09-07T00:12:54.134Z,6.93
2022-09-07T00:15:20.718Z,8.02
2022-09-07T00:17:47.265Z,11.23
2022-09-07T00:20:15.037Z,7.80
2022-09-07T00:22:41.805Z,5.88
2022-09-07T00:25:08.785Z,6.63
2022-09-07T00:27:35.336Z,5.75
2022-09-07T00:30:02.014Z,5.90
2022-09-07T00:32:28.636Z,8.50
2022-09-07T00:34:55.231Z,7.30
2022-09-07T00:37:21.837Z,7.55
2022-09-07T00:39:49.465Z,5.90
2022-09-07T00:42:18.759Z,4.32
2022-09-07T00:45:20.722Z,8.07
2022-09-07T00:48:02.495Z,9.50
2022-09-07T00:50:39.313Z,7.65
2022-09-07T00:53:12.694Z,9.55
2022-09-07T00:55:42.512Z,7.85
2022-09-07T00:58:09.833Z,8.07
2022-09-07T01:00:36.945Z,7.88
2022-09-07T01:03:05.464Z,7.60
2022-09-07T01:05:42.771Z,8.65
2022-09-07T01:08:12.107Z,9.10
2022-09-07T01:10:39.187Z,9.27
2022-09-07T01:13:06.423Z,6.95
2022-09-07T01:16:05.299Z,9.00
2022-09-07T01:18:50.037Z,7.18
2022-09-07T01:21:38.482Z,13.25
2022-09-07T01:24:29.871Z,7.10
2022-09-07T01:27:11.884Z,7.95
2022-09-07T01:29:41.546Z,10.52
2022-09-07T01:32:35.874Z,9.40
2022-09-07T01:35:08.783Z,8.65
2022-09-07T01:37:48.014Z,9.43
2022-09-07T01:40:23.609Z,9.10
2022-09-07T01:43:13.518Z,11.23
2022-09-07T01:45:43.682Z,8.98
2022-09-07T01:48:15.361Z,15.95
2022-09-07T01:50:56.069Z,13.32
2022-09-07T01:53:38.029Z,11.93
2022-09-07T01:56:12.477Z,12.05
2022-09-07T01:58:39.039Z,14.60
2022-09-07T02:01:24.591Z,11.85
2022-09-07T02:04:00.870Z,12.93
2022-09-07T02:06:43.607Z,12.90
2022-09-07T02:09:25.583Z,14.00
2022-09-07T02:11:53.570Z,11.07
2022-09-07T02:14:34.381Z,12.75
2022-09-07T02:17:09.790Z,16.67
2022-09-07T02:19:44.393Z,13.10
2022-09-07T02:22:18.534Z,12.60
2022-09-07T02:24:50.762Z,15.68
2022-09-07T02:27:24.303Z,15.80
2022-09-07T02:29:52.117Z,16.85
2022-09-07T02:32:19.013Z,19.73
2022-09-07T02:34:46.241Z,21.55
2022-09-07T02:37:15.457Z,24.77
2022-09-07T02:39:42.084Z,29.27
2022-09-07T02:42:09.330Z,27.67
2022-09-07T02:44:39.586Z,29.02
2022-09-07T02:47:24.924Z,30.30
2022-09-07T02:50:10.180Z,27.85
2022-09-07T02:53:04.329Z,29.98
2022-09-07T02:56:26.507Z,28.38
2022-09-07T02:59:23.768Z,30.00
2022-09-07T03:02:02.124Z,28.30
2022-09-07T03:04:48.121Z,41.95
2022-09-07T03:07:35.672Z,42.28
2022-09-07T03:10:06.025Z,39.50
2022-09-07T03:12:47.264Z,37.60
2022-09-07T03:15:20.220Z,33.75
2022-09-07T03:17:47.175Z,38.72
2022-09-07T03:20:14.494Z,34.55
2022-09-07T03:22:41.125Z,31.58
2022-09-07T03:25:08.098Z,32.33
2022-09-07T03:27:34.795Z,29.70
2022-09-07T03:30:02.165Z,31.45
2022-09-07T03:32:33.517Z,30.70
2022-09-07T03:35:00.675Z,30.33
2022-09-07T03:37:27.734Z,27.85
2022-09-07T03:39:54.433Z,26.60
2022-09-07T03:42:21.165Z,27.83
2022-09-07T03:44:51.039Z,32.80
2022-09-07T03:47:18.238Z,29.65
2022-09-07T03:49:44.913Z,26.98
2022-09-07T03:52:11.808Z,29.67
2022-09-07T03:54:39.733Z,28.65
2022-09-07T03:57:06.582Z,30.52
2022-09-07T03:59:33.377Z,29.75
2022-09-07T04:02:00.165Z,22.02
2022-09-07T04:04:26.859Z,21.15
2022-09-07T04:06:53.423Z,20.55
2022-09-07T04:09:20.093Z,20.92
2022-09-07T04:11:46.881Z,26.10
2022-09-07T04:14:13.476Z,27.60
2022-09-07T04:16:40.436Z,29.98
2022-09-07T04:19:07.077Z,26.88
2022-09-07T04:21:34.722Z,26.90
2022-09-07T04:24:01.436Z,26.92
2022-09-07T04:26:30.835Z,31.90
2022-09-07T04:28:58.600Z,33.17
2022-09-07T04:31:25.679Z,31.55
2022-09-07T04:33:52.953Z,33.03
2022-09-07T04:36:20.820Z,28.67
2022-09-07T04:38:54.058Z,26.13
2022-09-07T04:41:20.640Z,32.15
2022-09-07T04:43:48.132Z,29.10
2022-09-07T04:46:29.766Z,29.35
2022-09-07T04:49:01.630Z,27.02
2022-09-07T04:51:30.733Z,33.15
2022-09-07T04:53:59.524Z,28.23
2022-09-07T04:56:26.602Z,29.38
2022-09-07T04:58:53.466Z,30.33
2022-09-07T05:01:23.279Z,32.83
2022-09-07T05:03:50.315Z,30.92
2022-09-07T05:06:19.095Z,30.17
2022-09-07T05:08:48.541Z,26.02
2022-09-07T05:11:16.343Z,26.10
2022-09-07T05:13:43.390Z,27.58
2022-09-07T05:16:18.274Z,27.73
2022-09-07T05:18:48.873Z,30.60
2022-09-07T05:21:18.005Z,24.02
2022-09-07T05:23:44.660Z,28.75
2022-09-07T05:26:12.339Z,28.35
2022-09-07T05:28:41.118Z,29.67
2022-09-07T05:36:39.177Z,36.40
2022-09-07T05:39:06.880Z,30.27
2022-09-07T05:41:33.856Z,28.23
2022-09-07T05:46:47.056Z,27.10
2022-09-07T05:49:13.651Z,27.75
2022-09-07T05:51:41.063Z,27.15
2022-09-07T05:54:07.719Z,23.58
2022-09-07T05:56:36.015Z,24.95
2022-09-07T05:59:03.237Z,27.10
2022-09-07T06:01:30.082Z,27.85
2022-09-07T06:03:56.815Z,24.75
2022-09-07T06:06:23.566Z,21.55
2022-09-07T06:08:52.351Z,24.33
2022-09-07T06:11:21.611Z,22.33
2022-09-07T06:13:48.334Z,20.45
2022-09-07T06:16:16.510Z,19.00
2022-09-07T06:18:45.848Z,19.65
2022-09-07T06:21:16.322Z,23.08
2022-09-07T06:23:43.955Z,18.60
2022-09-07T06:26:11.877Z,19.70
2022-09-07T06:28:41.310Z,24.35
2022-09-07T06:31:13.629Z,22.33
2022-09-07T06:33:41.910Z,17.60
2022-09-07T06:36:14.061Z,18.85
2022-09-07T06:38:41.189Z,19.50
2022-09-07T06:43:58.534Z,16.75
2022-09-07T06:49:13.366Z,16.35
2022-09-07T06:51:39.985Z,16.75
2022-09-07T06:56:53.364Z,14.55
2022-09-07T06:59:19.978Z,19.20
2022-09-07T07:01:46.643Z,16.50
2022-09-07T07:04:14.038Z,14.10
2022-09-07T07:06:40.681Z,16.80
2022-09-07T07:09:12.091Z,14.90
2022-09-07T07:11:38.748Z,15.45
2022-09-07T07:14:05.390Z,14.88
2022-09-07T07:16:32.088Z,16.13
2022-09-07T07:18:58.744Z,17.75
2022-09-07T07:21:25.385Z,12.43
2022-09-07T07:23:52.868Z,14.60
2022-09-07T07:26:22.197Z,13.98
2022-09-07T07:29:06.300Z,16.15
2022-09-07T07:31:33.726Z,13.05
2022-09-07T07:34:00.393Z,15.20
2022-09-07T07:36:27.289Z,12.48
2022-09-07T07:38:59.373Z,12.77
2022-09-07T07:44:18.537Z,15.65
2022-09-07T07:46:48.318Z,16.05
2022-09-07T07:49:14.894Z,16.15
2022-09-07T07:54:28.099Z,16.75
2022-09-07T07:56:54.658Z,16.63
2022-09-07T07:59:21.180Z,17.27
2022-09-07T08:01:47.817Z,15.48
2022-09-07T08:04:14.448Z,18.40
2022-09-07T08:06:44.034Z,18.27
2022-09-07T08:09:11.927Z,15.82
2022-09-07T08:11:40.198Z,13.32
2022-09-07T08:14:08.530Z,11.10
2022-09-07T08:16:36.236Z,12.80
2022-09-07T08:19:03.414Z,8.65
2022-09-07T08:21:29.932Z,10.13
2022-09-07T08:23:56.409Z,12.80
2022-09-07T08:26:22.888Z,7.70
2022-09-07T08:28:49.415Z,8.65
2022-09-07T08:31:17.108Z,10.45
2022-09-07T08:33:44.139Z,7.13
2022-09-07T08:36:13.061Z,6.57
2022-09-07T08:38:40.124Z,10.90
2022-09-07T08:41:27.659Z,6.70
2022-09-07T08:44:05.412Z,6.70
2022-09-07T08:46:46.735Z,4.93
2022-09-07T08:49:18.779Z,6.80
2022-09-07T08:51:55.427Z,7.10
2022-09-07T08:54:22.098Z,5.47
2022-09-07T09:00:08.627Z,5.72
2022-09-07T09:05:35.877Z,4.80
2022-09-07T09:06:11.268Z,9.10
2022-09-07T09:08:33.475Z,5.80
2022-09-07T09:11:10.418Z,6.18
2022-09-07T09:13:55.290Z,7.65
2022-09-07T09:16:29.593Z,3.90
2022-09-07T09:19:18.003Z,6.30
2022-09-07T09:21:45.054Z,7.45
2022-09-07T09:24:18.999Z,5.10
2022-09-07T09:26:53.080Z,4.82
2022-09-07T09:29:22.136Z,6.15
2022-09-07T09:31:48.820Z,4.45
2022-09-07T09:34:23.864Z,4.18
2022-09-07T09:36:55.837Z,5.45
2022-09-07T09:39:34.046Z,5.55
2022-09-07T09:42:23.574Z,4.40
2022-09-07T09:44:50.849Z,7.15
2022-09-07T09:47:36.021Z,4.43
2022-09-07T09:52:29.302Z,6.50
2022-09-07T09:53:04.379Z,5.18
2022-09-07T09:55:36.982Z,3.15
2022-09-07T10:01:26.881Z,7.97
2022-09-07T10:06:25.433Z,4.47
2022-09-07T10:08:57.928Z,5.28
2022-09-07T10:14:34.145Z,5.75
2022-09-07T10:17:02.115Z,6.47
2022-09-07T10:19:34.460Z,5.07
2022-09-07T10:22:04.069Z,5.88
2022-09-07T10:24:38.975Z,7.50
2022-09-07T10:27:33.190Z,6.37
2022-09-07T10:30:01.055Z,4.40
2022-09-07T10:32:42.856Z,4.68
2022-09-07T10:35:33.205Z,4.88
2022-09-07T10:38:19.334Z,5.60
2022-09-07T10:40:54.162Z,4.25
2022-09-07T10:43:43.605Z,4.00
2022-09-07T10:49:35.917Z,5.85
2022-09-07T10:52:23.133Z,4.97
2022-09-07T10:54:55.627Z,5.20
2022-09-07T10:57:28.511Z,4.32
2022-09-07T11:00:12.716Z,5.03
2022-09-07T11:03:29.036Z,6.03
2022-09-07T11:06:20.075Z,5.90
2022-09-07T11:09:24.062Z,7.38
2022-09-07T11:12:14.460Z,5.65
2022-09-07T11:14:53.217Z,6.93
2022-09-07T11:17:26.464Z,7.00
2022-09-07T11:20:01.112Z,6.13
2022-09-07T11:22:41.405Z,6.63
2022-09-07T11:25:33.862Z,5.80
2022-09-07T11:28:20.892Z,8.25
2022-09-07T11:31:00.452Z,7.38
2022-09-07T11:36:46.184Z,6.72
2022-09-07T11:39:26.712Z,8.35
2022-09-07T11:45:15.877Z,7.93
2022-09-07T11:47:52.495Z,6.50
2022-09-07T11:50:23.052Z,7.70
2022-09-07T11:52:54.840Z,5.53
2022-09-07T11:55:36.739Z,8.35
2022-09-07T11:58:44.940Z,6.05
2022-09-07T12:01:39.400Z,6.55
2022-09-07T12:04:35.786Z,6.53
2022-09-07T12:07:34.713Z,7.10
2022-09-07T12:10:07.482Z,9.43
2022-09-07T12:12:56.573Z,8.40
2022-09-07T12:15:44.461Z,5.82
2022-09-07T12:18:26.644Z,5.45
2022-09-07T12:20:53.228Z,5.18
2022-09-07T12:23:27.752Z,5.80
2022-09-07T12:26:32.641Z,5.75
2022-09-07T12:28:59.051Z,3.25
2022-09-07T12:31:58.753Z,3.97
2022-09-07T12:34:32.063Z,7.30
2022-09-07T12:37:00.136Z,5.13
2022-09-07T12:39:30.589Z,5.40
2022-09-07T12:45:30.452Z,6.10
2022-09-07T12:47:59.347Z,4.65
2022-09-07T12:50:38.239Z,4.80
2022-09-07T12:53:12.640Z,4.72
2022-09-07T12:56:16.528Z,4.07
2022-09-07T12:58:49.256Z,4.55
2022-09-07T13:01:36.458Z,4.03
2022-09-07T13:04:08.836Z,2.40
2022-09-07T13:07:02.026Z,4.45
2022-09-07T13:09:41.307Z,3.25
2022-09-07T13:12:55.300Z,4.20
2022-09-07T13:15:41.925Z,5.28
2022-09-07T13:18:34.354Z,5.50
2022-09-07T13:21:06.959Z,4.22
2022-09-07T13:23:34.798Z,4.90
2022-09-07T13:26:03.436Z,3.13
2022-09-07T13:28:52.427Z,2.03
2022-09-07T13:31:46.213Z,5.43
2022-09-07T13:34:43.813Z,1.55
2022-09-07T13:37:18.122Z,2.78
2022-09-07T13:39:49.406Z,2.28
2022-09-07T13:42:23.563Z,2.63
2022-09-07T13:44:55.613Z,3.28
2022-09-07T13:47:31.348Z,6.60
2022-09-07T13:50:11.695Z,5.32
2022-09-07T13:53:06.030Z,7.18
2022-09-07T13:55:56.118Z,2.92
2022-09-07T13:58:34.087Z,2.35
2022-09-07T14:01:12.966Z,5.07
2022-09-07T14:03:48.025Z,2.47
2022-09-07T14:06:25.498Z,5.57
2022-09-07T14:08:55.229Z,3.20
2022-09-07T14:11:39.869Z,3.28
2022-09-07T14:14:16.722Z,3.20
2022-09-07T14:16:46.813Z,1.40
2022-09-07T14:19:19.368Z,2.70
2022-09-07T14:21:57.890Z,3.78
2022-09-07T14:24:40.132Z,3.13
2022-09-07T14:27:21.129Z,3.70
2022-09-07T14:29:47.823Z,3.78
2022-09-07T14:32:22.137Z,6.30
2022-09-07T14:34:49.918Z,6.57
2022-09-07T14:37:19.518Z,2.95
2022-09-07T14:39:50.733Z,3.00
2022-09-07T14:42:23.123Z,4.75
2022-09-07T14:44:50.194Z,4.70
2022-09-07T14:47:30.506Z,6.43
2022-09-07T14:50:05.667Z,2.40
2022-09-07T14:52:42.492Z,2.50
2022-09-07T14:55:31.906Z,1.77
2022-09-07T14:58:22.106Z,3.53
2022-09-07T15:04:01.838Z,2.58
2022-09-07T15:09:50.900Z,7.95
2022-09-07T15:12:27.177Z,2.92
2022-09-07T15:15:10.572Z,3.60
2022-09-07T15:17:44.809Z,1.98
2022-09-07T15:20:36.640Z,4.22
2022-09-07T15:23:05.528Z,7.18
2022-09-07T15:25:32.812Z,7.28
2022-09-07T15:28:00.300Z,5.68
2022-09-07T15:30:27.320Z,7.05
2022-09-07T15:32:56.885Z,5.45
2022-09-07T15:35:23.765Z,4.32
2022-09-07T15:38:58.949Z,2.50
2022-09-07T15:41:03.768Z,2.22
2022-09-07T15:43:29.593Z,4.80
2022-09-07T15:45:56.253Z,4.00
2022-09-07T15:48:26.673Z,3.72
2022-09-07T15:52:04.520Z,3.20
2022-09-07T15:54:12.744Z,5.57
2022-09-07T15:56:39.495Z,6.15
2022-09-07T15:59:06.339Z,2.88
2022-09-07T16:04:19.423Z,4.68
2022-09-07T16:06:48.187Z,3.25
2022-09-07T16:09:16.161Z,3.80
2022-09-07T16:11:42.648Z,2.92
2022-09-07T16:14:12.277Z,4.65
2022-09-07T16:19:25.225Z,4.18
2022-09-07T16:21:51.797Z,2.65
2022-09-07T16:24:18.311Z,5.97
2022-09-07T16:26:44.901Z,4.70
2022-09-07T16:29:11.404Z,3.13
2022-09-07T16:31:38.407Z,2.05
2022-09-07T16:34:05.034Z,4.50
2022-09-07T16:36:31.999Z,12.00
2022-09-07T16:39:00.776Z,5.30
2022-09-07T16:41:31.286Z,7.28
2022-09-07T16:43:58.653Z,3.40
2022-09-07T16:46:27.795Z,3.60
2022-09-07T16:48:55.099Z,3.40
2022-09-07T16:51:23.685Z,2.95
2022-09-07T16:53:52.981Z,3.78
2022-09-07T16:56:23.525Z,2.92
2022-09-07T16:58:59.088Z,2.42
2022-09-07T17:03:54.240Z,2.25
2022-09-07T17:06:23.726Z,11.45
2022-09-07T17:08:50.701Z,3.67
2022-09-07T17:11:21.941Z,2.00
2022-09-07T17:13:49.241Z,6.57
2022-09-07T17:16:19.827Z,4.35
2022-09-07T17:21:36.962Z,4.22
2022-09-07T17:24:05.137Z,1.55
2022-09-07T17:26:32.633Z,2.63
2022-09-07T17:29:01.120Z,6.05
2022-09-07T17:34:19.835Z,3.20
2022-09-07T17:36:46.994Z,6.07
2022-09-07T17:39:15.030Z,3.90
2022-09-07T17:41:42.812Z,3.10
2022-09-07T17:44:09.340Z,3.33
2022-09-07T17:46:36.206Z,3.10
2022-09-07T17:49:03.533Z,1.80
2022-09-07T17:51:32.716Z,4.85
2022-09-07T17:54:02.647Z,5.65
2022-09-07T17:56:29.618Z,4.78
2022-09-07T18:00:10.603Z,1.50
2022-09-07T18:01:43.304Z,2.38
2022-09-07T18:04:10.955Z,5.45
2022-09-07T18:06:37.737Z,2.15
2022-09-07T18:09:05.303Z,4.40
2022-09-07T18:11:49.422Z,3.35
2022-09-07T18:14:16.662Z,11.52
2022-09-07T18:16:45.429Z,4.18
2022-09-07T18:19:12.574Z,5.50
2022-09-07T18:21:42.907Z,6.13
2022-09-07T18:24:16.741Z,4.38
2022-09-07T18:26:43.871Z,1.92
2022-09-07T18:29:27.403Z,5.45
2022-09-07T18:31:55.136Z,5.93
2022-09-07T18:34:22.209Z,3.47
2022-09-07T18:36:49.138Z,4.68
2022-09-07T18:39:15.730Z,3.88
2022-09-07T18:41:42.362Z,2.72
2022-09-07T18:46:55.993Z,6.53
2022-09-07T18:49:22.490Z,2.53
2022-09-07T18:54:35.618Z,2.17
2022-09-07T18:57:02.089Z,2.55
2022-09-07T18:59:29.739Z,3.25
2022-09-07T19:02:01.374Z,3.25
2022-09-07T19:05:49.472Z,3.45
2022-09-07T19:07:16.992Z,5.35
2022-09-07T19:09:43.540Z,4.97
2022-09-07T19:12:10.060Z,6.13
2022-09-07T19:14:36.685Z,4.25
2022-09-07T19:17:03.245Z,3.22
2022-09-07T19:19:29.859Z,4.00
2022-09-07T19:21:57.759Z,3.67
2022-09-07T19:24:25.624Z,5.45
2022-09-07T19:26:55.745Z,5.22
2022-09-07T19:29:25.676Z,2.80
2022-09-07T19:32:05.447Z,3.08
2022-09-07T19:34:37.675Z,7.68
2022-09-07T19:37:06.170Z,7.35
2022-09-07T19:39:32.823Z,4.97
2022-09-07T19:41:59.705Z,5.18
2022-09-07T19:44:26.456Z,4.30
2022-09-07T19:46:53.022Z,4.25
2022-09-07T19:49:19.738Z,6.18
2022-09-07T19:51:46.445Z,5.70
2022-09-07T19:54:13.611Z,4.60
2022-09-07T19:56:42.736Z,4.45
2022-09-07T19:59:09.687Z,5.85
2022-09-07T20:01:38.479Z,3.85
2022-09-07T20:04:07.536Z,4.97
2022-09-07T20:06:37.885Z,5.70
2022-09-07T20:09:05.492Z,5.55
2022-09-07T20:11:34.811Z,5.57
2022-09-07T20:14:01.457Z,5.43
2022-09-07T20:16:28.228Z,6.68
2022-09-07T20:19:03.100Z,6.28
2022-09-07T20:21:39.286Z,6.57
2022-09-07T20:24:06.114Z,6.75
2022-09-07T20:26:32.720Z,7.70
2022-09-07T20:29:16.727Z,8.00
2022-09-07T20:31:46.846Z,4.93
2022-09-07T20:34:14.047Z,5.07
2022-09-07T20:36:40.523Z,6.68
2022-09-07T20:39:07.105Z,7.40
2022-09-07T20:41:34.737Z,6.95
2022-09-07T20:44:03.016Z,9.10
2022-09-07T20:46:31.765Z,10.07
2022-09-07T20:48:58.427Z,4.53
2022-09-07T20:51:25.597Z,5.80
2022-09-07T20:53:52.711Z,6.63
2022-09-07T20:56:25.809Z,6.75
2022-09-07T20:58:57.726Z,5.32
2022-09-07T21:01:24.684Z,5.60
2022-09-07T21:03:53.948Z,5.10
2022-09-07T21:06:22.291Z,4.25
2022-09-07T21:08:50.218Z,7.03
2022-09-07T21:11:22.203Z,7.30
2022-09-07T21:13:58.275Z,6.18
2022-09-07T21:16:25.805Z,6.05
2022-09-07T21:18:55.362Z,6.70
2022-09-07T21:21:23.084Z,4.75
2022-09-07T21:23:55.045Z,7.18
2022-09-07T21:26:21.591Z,6.40
2022-09-07T21:28:48.444Z,7.00
2022-09-07T21:31:14.955Z,6.05
2022-09-07T21:33:41.502Z,6.65
2022-09-07T21:36:10.888Z,6.15
2022-09-07T21:38:38.958Z,8.98
2022-09-07T21:41:10.088Z,7.53
2022-09-07T21:43:37.126Z,6.20
2022-09-07T21:46:31.489Z,6.75
2022-09-07T21:48:59.257Z,6.10
2022-09-07T21:51:26.978Z,9.93
2022-09-07T21:53:57.773Z,6.18
2022-09-07T21:56:25.042Z,6.65
2022-09-07T21:58:55.550Z,4.90
2022-09-07T22:01:23.910Z,6.75
2022-09-07T22:03:56.212Z,5.93
2022-09-07T22:06:23.501Z,7.18
2022-09-07T22:08:50.076Z,8.63
2022-09-07T22:11:19.587Z,4.65
2022-09-07T22:13:46.024Z,4.28
2022-09-07T22:16:13.547Z,7.70
2022-09-07T22:18:43.897Z,7.68
2022-09-07T22:21:14.702Z,5.55
2022-09-07T22:23:45.336Z,9.27
2022-09-07T22:26:13.316Z,18.92
2022-09-07T22:28:40.102Z,9.40
2022-09-07T22:31:22.162Z,9.55
2022-09-07T22:33:50.080Z,6.15
2022-09-07T22:36:22.949Z,5.53
2022-09-07T22:38:52.272Z,6.00
2022-09-07T22:41:21.440Z,9.23
2022-09-07T22:43:50.799Z,7.45
2022-09-07T22:46:18.933Z,6.05
2022-09-07T22:48:45.695Z,11.15
2022-09-07T22:51:12.652Z,7.13
2022-09-07T22:53:41.732Z,6.82
2022-09-07T22:56:18.435Z,3.90
2022-09-07T22:58:50.181Z,6.40
2022-09-07T23:01:17.271Z,5.57
2022-09-07T23:03:45.001Z,5.30
2022-09-07T23:06:22.624Z,7.20
2022-09-07T23:08:51.419Z,5.07
2022-09-07T23:11:18.355Z,5.65
2022-09-07T23:13:45.416Z,7.88
2022-09-07T23:16:12.279Z,9.90
2022-09-07T23:18:40.797Z,8.32
2022-09-07T23:21:08.341Z,5.78
2022-09-07T23:23:35.313Z,5.15
2022-09-07T23:26:03.053Z,5.93
2022-09-07T23:28:30.588Z,4.47
2022-09-07T23:30:57.685Z,7.85
2022-09-07T23:33:26.080Z,6.40
2022-09-07T23:36:02.046Z,5.22
2022-09-07T23:38:29.531Z,7.55
2022-09-07T23:40:57.454Z,8.32
2022-09-07T23:43:27.148Z,5.75
2022-09-07T23:45:54.418Z,5.38
2022-09-07T23:48:21.750Z,6.05
2022-09-07T23:50:48.849Z,3.25
2022-09-07T23:53:16.605Z,4.60
2022-09-07T23:55:43.469Z,3.90
2022-09-07T23:58:10.297Z,6.68
